Time;durP1;ratioP1;P1;durP2;ratioP2;P2;SDS_P1;SDS_P2;PMS_P1;PMS_P2;Temp;Humidity;BMP_temperature;BMP_pressure;BME280_temperature;BME280_humidity;BME280_pressure;Samples;Min_cycle;Max_cycle;Signal;HPM_P1;HPM_P2
2023/12/12 00:01:04;;;;;;;1.70;0.60;;;;;;;;;;104411;1282;61711;-37
2023/12/12 00:03:30;;;;;;;2.70;1.00;;;;;;;;;;104372;1278;61757;-35
2023/12/12 00:05:56;;;;;;;4.40;1.60;;;;;;;;;;104427;1279;61675;-34
2023/12/12 00:08:21;;;;;;;1.50;0.60;;;;;;;;;;104450;1278;61694;-33
2023/12/12 00:10:47;;;;;;;7.30;1.50;;;;;;;;;;104272;1278;61617;-34
2023/12/12 00:13:12;;;;;;;4.10;0.80;;;;;;;;;;104556;1279;61692;-33
2023/12/12 00:15:38;;;;;;;4.00;1.20;;;;;;;;;;104587;1279;61640;-31
2023/12/12 00:18:04;;;;;;;2.70;0.80;;;;;;;;;;104338;1279;61781;-33
2023/12/12 00:20:29;;;;;;;3.20;0.60;;;;;;;;;;104376;1282;61627;-34
2023/12/12 00:22:55;;;;;;;2.60;0.90;;;;;;;;;;104542;1280;61499;-33
2023/12/12 00:25:21;;;;;;;1.50;0.70;;;;;;;;;;104344;1280;61620;-34
2023/12/12 00:27:46;;;;;;;1.90;0.50;;;;;;;;;;104469;1279;62037;-32
2023/12/12 00:30:13;;;;;;;2.60;0.80;;;;;;;;;;104438;1279;61669;-35
2023/12/12 00:32:38;;;;;;;3.40;0.80;;;;;;;;;;104391;1279;61563;-33
2023/12/12 00:35:05;;;;;;;5.70;0.90;;;;;;;;;;104313;1278;61698;-33
2023/12/12 00:37:31;;;;;;;5.40;0.90;;;;;;;;;;104358;1279;61598;-35
2023/12/12 00:39:57;;;;;;;;;;;;;;;;;;104350;1279;61695;-33
2023/12/12 00:42:23;;;;;;;4.70;1.20;;;;;;;;;;104546;1279;61737;-33
2023/12/12 00:44:48;;;;;;;;;;;;;;;;;;104354;1279;61595;-33
2023/12/12 00:47:14;;;;;;;3.70;1.00;;;;;;;;;;104393;1280;61701;-35
2023/12/12 00:49:39;;;;;;;2.70;1.00;;;;;;;;;;104338;1278;61592;-33
2023/12/12 00:52:06;;;;;;;4.30;1.30;;;;;;;;;;104384;1279;61698;-34
2023/12/12 00:54:32;;;;;;;3.00;0.90;;;;;;;;;;104307;1279;61592;-35
2023/12/12 00:56:58;;;;;;;1.80;1.00;;;;;;;;;;104479;1279;61704;-34
2023/12/12 00:59:23;;;;;;;3.30;1.00;;;;;;;;;;104441;1279;61691;-36
2023/12/12 01:01:49;;;;;;;2.90;0.80;;;;;;;;;;104447;1279;61735;-35
2023/12/12 01:04:14;;;;;;;1.70;0.70;;;;;;;;;;104488;1279;61612;-33
2023/12/12 01:06:40;;;;;;;2.80;1.10;;;;;;;;;;104308;1279;61732;-33
2023/12/12 01:09:06;;;;;;;2.20;0.80;;;;;;;;;;104325;1279;62088;-33
2023/12/12 01:11:31;;;;;;;3.00;0.90;;;;;;;;;;104352;1279;61580;-33
2023/12/12 01:13:57;;;;;;;2.60;0.80;;;;;;;;;;104320;1280;61706;-33
2023/12/12 01:16:23;;;;;;;2.30;0.90;;;;;;;;;;104399;1278;61693;-32
2023/12/12 01:18:49;;;;;;;5.10;1.10;;;;;;;;;;104343;1279;61666;-33
2023/12/12 01:21:14;;;;;;;2.90;0.90;;;;;;;;;;104464;1279;61713;-34
2023/12/12 01:23:47;;;;;;;2.50;1.00;;;;;;;;;;104321;1279;61813;-31
2023/12/12 01:26:13;;;;;;;3.20;0.80;;;;;;;;;;104493;1279;62091;-34
2023/12/12 01:28:39;;;;;;;3.00;0.80;;;;;;;;;;104397;1279;61697;-34
2023/12/12 01:31:04;;;;;;;2.70;1.00;;;;;;;;;;104454;1282;62191;-32
2023/12/12 01:33:30;;;;;;;1.20;0.70;;;;;;;;;;104350;1282;61617;-33
2023/12/12 01:35:56;;;;;;;4.10;1.20;;;;;;;;;;104398;1280;61679;-35
2023/12/12 01:38:22;;;;;;;1.50;0.80;;;;;;;;;;104363;1280;61701;-35
2023/12/12 01:40:48;;;;;;;3.30;1.00;;;;;;;;;;104342;1279;61724;-36
2023/12/12 01:43:30;;;;;;;3.20;0.90;;;;;;;;;;104383;1278;61628;-37
2023/12/12 01:45:56;;;;;;;2.50;1.20;;;;;;;;;;104348;1279;60353;-32
2023/12/12 01:48:22;;;;;;;2.50;0.90;;;;;;;;;;104392;1278;61987;-37
2023/12/12 01:50:48;;;;;;;2.30;1.10;;;;;;;;;;104331;1278;62702;-34
2023/12/12 02:33:37;;;;;;;1.90;0.60;;;;;;;-101.49;19.20;19639.14;100717;1282;1600279;-35
2023/12/12 02:36:03;;;;;;;1.70;0.90;;;;;;;-128.00;-1.00;-1.00;100165;1282;1004666;-36
2023/12/12 02:38:28;;;;;;;2.80;0.70;;;;;;;-128.00;-1.00;-1.00;100243;1282;1003974;-35
2023/12/12 02:40:54;;;;;;;1.60;0.50;;;;;;;-128.00;-1.00;-1.00;100219;1282;1003674;-32
2023/12/12 02:43:20;;;;;;;3.00;0.80;;;;;;;-128.00;-1.00;-1.00;100205;1282;1055749;-30
2023/12/12 02:45:46;;;;;;;2.50;1.10;;;;;;;-128.00;-1.00;-1.00;100221;1282;1003317;-31
2023/12/12 02:48:12;;;;;;;2.30;0.80;;;;;;;-128.00;-1.00;-1.00;100184;1281;1003405;-30
2023/12/12 02:50:37;;;;;;;1.60;0.80;;;;;;;-128.00;-1.00;-1.00;100208;1286;1045478;-32
2023/12/12 02:53:04;;;;;;;3.20;0.60;;;;;;;-128.00;-1.00;-1.00;100261;1282;1004872;-34
2023/12/12 02:55:30;;;;;;;2.10;0.80;;;;;;;-128.00;-1.00;-1.00;100298;1282;1004911;-35
2023/12/12 02:57:56;;;;;;;1.30;0.70;;;;;;;-128.00;-1.00;-1.00;100246;1282;1003368;-32
2023/12/12 03:00:22;;;;;;;2.40;0.60;;;;;;;-128.00;-1.00;-1.00;100223;1288;1039691;-33
2023/12/12 03:02:47;;;;;;;;;;;;;;;-128.00;-1.00;-1.00;100256;1282;1003195;-31
2023/12/12 03:05:13;;;;;;;2.40;0.50;;;;;;;-128.00;-1.00;-1.00;100254;1282;1004427;-30
2023/12/12 03:07:39;;;;;;;1.90;0.60;;;;;;;-128.00;-1.00;-1.00;100132;1281;1058739;-31
2023/12/12 03:10:06;;;;;;;2.20;0.80;;;;;;;-128.00;-1.00;-1.00;100224;1284;1003314;-32
2023/12/12 03:12:32;;;;;;;3.50;0.80;;;;;;;-128.00;-1.00;-1.00;100204;1282;1002987;-32
2023/12/12 03:14:58;;;;;;;3.30;0.70;;;;;;;-128.00;-1.00;-1.00;100392;1282;1003830;-32
2023/12/12 03:17:24;;;;;;;2.70;0.50;;;;;;;-128.00;-1.00;-1.00;100262;1282;1002898;-34
2023/12/12 03:19:50;;;;;;;;;;;;;;;-128.00;-1.00;-1.00;100282;1282;1002494;-32
2023/12/12 03:22:16;;;;;;;5.00;0.80;;;;;;;-128.00;-1.00;-1.00;100322;1282;1013380;-32
2023/12/12 03:24:42;;;;;;;2.20;0.50;;;;;;;-128.00;-1.00;-1.00;100192;1282;1003388;-30
2023/12/12 03:27:08;;;;;;;2.00;0.50;;;;;;;-128.00;-1.00;-1.00;100291;1282;1003077;-32
2023/12/12 03:29:35;;;;;;;1.50;0.70;;;;;;;-128.00;-1.00;-1.00;100270;1285;1003404;-31
2023/12/12 03:32:01;;;;;;;1.00;0.40;;;;;;;-128.00;-1.00;-1.00;100192;1281;1005135;-33
2023/12/12 03:34:26;;;;;;;;;;;;;;;-128.00;-1.00;-1.00;100168;1282;1003156;-31
2023/12/12 03:36:52;;;;;;;0.90;0.40;;;;;;;-128.00;-1.00;-1.00;100201;1284;1003814;-31
2023/12/12 03:39:18;;;;;;;0.80;0.50;;;;;;;-128.00;-1.00;-1.00;100192;1282;1046452;-31
2023/12/12 03:41:44;;;;;;;;;;;;;;;-128.00;-1.00;-1.00;100213;1283;1003045;-31
2023/12/12 03:44:09;;;;;;;2.10;0.50;;;;;;;-128.00;-1.00;-1.00;100229;1282;1003955;-32
2023/12/12 03:46:35;;;;;;;1.30;0.80;;;;;;;-128.00;-1.00;-1.00;100175;1287;1012320;-31
2023/12/12 03:49:01;;;;;;;1.50;0.30;;;;;;;-128.00;-1.00;-1.00;100342;1282;1003947;-30
2023/12/12 03:51:27;;;;;;;2.80;0.60;;;;;;;-128.00;-1.00;-1.00;100357;1282;1003292;-40
2023/12/12 03:53:53;;;;;;;0.90;0.40;;;;;;;-128.00;-1.00;-1.00;100228;1282;1055305;-31
2023/12/12 03:56:19;;;;;;;0.70;0.50;;;;;;;-128.00;-1.00;-1.00;100294;1282;1003418;-36
2023/12/12 03:58:45;;;;;;;1.00;0.60;;;;;;;-128.00;-1.00;-1.00;100199;1282;1039149;-29
2023/12/12 04:01:11;;;;;;;0.60;0.40;;;;;;;-128.00;-1.00;-1.00;100233;1282;1003290;-31
2023/12/12 04:03:37;;;;;;;0.70;0.30;;;;;;;-128.00;-1.00;-1.00;100286;1286;1005023;-29
2023/12/12 04:06:03;;;;;;;1.70;0.50;;;;;;;-128.00;-1.00;-1.00;100302;1282;1003622;-31
2023/12/12 04:08:29;;;;;;;1.40;0.50;;;;;;;-128.00;-1.00;-1.00;100335;1284;1012614;-31
2023/12/12 04:10:55;;;;;;;0.70;0.40;;;;;;;-128.00;-1.00;-1.00;100263;1282;1003268;-30
2023/12/12 04:13:22;;;;;;;0.50;0.30;;;;;;;-128.00;-1.00;-1.00;100204;1282;1003012;-30
2023/12/12 04:15:48;;;;;;;1.60;0.50;;;;;;;-128.00;-1.00;-1.00;100188;1282;1055636;-30
2023/12/12 04:18:13;;;;;;;0.50;0.40;;;;;;;-128.00;-1.00;-1.00;100192;1282;1003427;-31
2023/12/12 04:20:39;;;;;;;1.50;0.40;;;;;;;-128.00;-1.00;-1.00;100259;1286;1002858;-33
2023/12/12 04:23:05;;;;;;;0.80;0.40;;;;;;;-128.00;-1.00;-1.00;100265;1287;1003219;-36
2023/12/12 04:25:32;;;;;;;0.80;0.40;;;;;;;-128.00;-1.00;-1.00;100315;1282;1059211;-34
2023/12/12 04:27:59;;;;;;;1.60;0.50;;;;;;;-128.00;-1.00;-1.00;100274;1282;1004560;-32
2023/12/12 04:30:24;;;;;;;1.70;0.50;;;;;;;-128.00;-1.00;-1.00;100248;1282;1003211;-30
2023/12/12 04:32:50;;;;;;;1.40;0.60;;;;;;;-128.00;-1.00;-1.00;100239;1282;1002720;-34
2023/12/12 04:35:16;;;;;;;1.20;0.40;;;;;;;-128.00;-1.00;-1.00;100211;1282;1046974;-30
2023/12/12 04:37:42;;;;;;;;;;;;;;;-128.00;-1.00;-1.00;100227;1282;1003432;-32
2023/12/12 04:40:08;;;;;;;4.30;1.60;;;;;;;-128.00;-1.00;-1.00;100210;1282;1003908;-32
2023/12/12 04:42:33;;;;;;;;;;;;;;;-128.00;-1.00;-1.00;100177;1282;1012973;-30
2023/12/12 04:44:59;;;;;;;0.40;0.30;;;;;;;-128.00;-1.00;-1.00;100134;1282;1003826;-32
2023/12/12 04:47:25;;;;;;;;;;;;;;;-128.00;-1.00;-1.00;100243;1282;1003325;-30
2023/12/12 04:49:51;;;;;;;1.00;0.60;;;;;;;-128.00;-1.00;-1.00;100238;1282;1055071;-30
2023/12/12 04:52:17;;;;;;;1.40;0.60;;;;;;;-128.00;-1.00;-1.00;100166;1282;1003810;-33
2023/12/12 04:54:43;;;;;;;1.20;0.60;;;;;;;-128.00;-1.00;-1.00;100261;1282;1003119;-32
2023/12/12 04:57:09;;;;;;;2.30;0.70;;;;;;;-128.00;-1.00;-1.00;100334;1283;1003404;-30
2023/12/12 04:59:35;;;;;;;1.10;0.50;;;;;;;-128.00;-1.00;-1.00;100278;1282;1059724;-31
2023/12/12 05:02:00;;;;;;;1.10;0.60;;;;;;;-128.00;-1.00;-1.00;100234;1282;1003426;-31
2023/12/12 05:04:26;;;;;;;0.50;0.40;;;;;;;-128.00;-1.00;-1.00;100288;1282;1004390;-31
2023/12/12 05:06:52;;;;;;;1.70;0.80;;;;;;;-128.00;-1.00;-1.00;100174;1282;1039116;-32
2023/12/12 05:09:18;;;;;;;0.90;0.40;;;;;;;-128.00;-1.00;-1.00;100248;1282;1004014;-30
2023/12/12 05:11:44;;;;;;;0.90;0.50;;;;;;;-128.00;-1.00;-1.00;100210;1282;1004172;-31
2023/12/12 05:14:10;;;;;;;0.40;0.20;;;;;;;-128.00;-1.00;-1.00;100157;1282;1059487;-30
2023/12/12 05:16:36;;;;;;;1.30;0.40;;;;;;;-128.00;-1.00;-1.00;100208;1282;1004076;-32
2023/12/12 05:19:02;;;;;;;1.40;0.40;;;;;;;-128.00;-1.00;-1.00;100205;1282;1003258;-32
2023/12/12 05:21:28;;;;;;;1.50;0.40;;;;;;;-128.00;-1.00;-1.00;100346;1282;1002781;-33
2023/12/12 05:23:54;;;;;;;1.30;0.50;;;;;;;-128.00;-1.00;-1.00;100286;1282;1055549;-31
2023/12/12 05:26:20;;;;;;;1.10;0.30;;;;;;;-128.00;-1.00;-1.00;100199;1286;1003354;-32
2023/12/12 05:28:46;;;;;;;3.00;0.50;;;;;;;-128.00;-1.00;-1.00;100249;1282;1003171;-33
2023/12/12 05:31:11;;;;;;;2.70;0.50;;;;;;;-128.00;-1.00;-1.00;100201;1282;1046036;-31
2023/12/12 05:33:38;;;;;;;1.60;0.40;;;;;;;-128.00;-1.00;-1.00;100200;1282;1003655;-31
2023/12/12 05:36:04;;;;;;;2.50;0.90;;;;;;;-128.00;-1.00;-1.00;100267;1286;1003547;-31
2023/12/12 05:44:38;;;;;;;5.10;0.50;;;;;;;;;;103546;1288;599062;-32
2023/12/12 05:47:04;;;;;;;1.80;0.80;;;;;;;;;;103662;1289;60181;-34
2023/12/12 05:49:29;;;;;;;1.80;0.50;;;;;;;;;;103453;1291;60197;-31
2023/12/12 05:51:55;;;;;;;0.70;0.50;;;;;;;;;;103279;1286;60321;-31
2023/12/12 05:54:21;;;;;;;0.90;0.60;;;;;;;;;;103624;1287;60899;-31
2023/12/12 05:56:47;;;;;;;1.40;0.30;;;;;;;;;;103563;1289;60264;-32
2023/12/12 05:59:14;;;;;;;1.50;0.70;;;;;;;;;;103539;1286;142599;-33
2023/12/12 06:01:42;;;;;;;5.60;1.90;;;;;;;;;;103761;1288;60149;-31
2023/12/12 06:04:12;;;;;;;1.90;0.80;;;;;;;;;;103732;1286;60310;-36
2023/12/12 06:06:41;;;;;;;16.10;5.80;;;;;;;;;;103698;1285;60137;-31
2023/12/12 06:09:07;;;;;;;119.40;31.40;;;;;;;;;;103766;1285;61240;-32
2023/12/12 06:11:32;;;;;;;82.80;21.30;;;;;;;;;;103775;1286;60885;-32
2023/12/12 06:13:58;;;;;;;68.70;18.60;;;;;;;;;;103860;1288;60975;-33
2023/12/12 06:16:24;;;;;;;55.00;16.20;;;;;;;;;;103812;1285;60893;-33
2023/12/12 06:18:51;;;;;;;24.00;7.80;;;;;;;;;;103694;1287;60942;-31
2023/12/12 06:21:17;;;;;;;57.80;20.80;;;;;;;;;;103752;1285;60891;-31
2023/12/12 06:23:43;;;;;;;18.30;7.40;;;;;;;;;;103782;1284;60896;-32
2023/12/12 06:26:08;;;;;;;10.10;6.40;;;;;;;;;;103670;1288;60801;-31
2023/12/12 06:28:35;;;;;;;4.20;2.90;;;;;;;;;;103642;1286;60889;-31
2023/12/12 06:31:01;;;;;;;4.00;1.50;;;;;;;;;;103751;1288;60878;-30
2023/12/12 06:33:28;;;;;;;4.50;1.30;;;;;;;;;;103730;1288;60872;-33
2023/12/12 06:35:55;;;;;;;2.70;0.90;;;;;;;;;;103417;1288;60952;-32
2023/12/12 06:38:20;;;;;;;6.00;0.80;;;;;;;;;;103687;1285;60786;-31
2023/12/12 06:40:46;;;;;;;4.90;1.00;;;;;;;;;;103752;1285;60828;-33
2023/12/12 06:43:12;;;;;;;2.90;0.80;;;;;;;;;;103771;1285;60876;-31
2023/12/12 06:45:37;;;;;;;2.70;0.70;;;;;;;;;;103894;1288;60876;-31
2023/12/12 06:48:03;;;;;;;3.70;1.20;;;;;;;;;;103772;1285;60702;-29
2023/12/12 06:50:29;;;;;;;2.60;0.90;;;;;;;;;;103712;1286;60875;-31
2023/12/12 06:52:54;;;;;;;1.80;0.80;;;;;;;;;;103702;1285;60877;-31
2023/12/12 06:55:20;;;;;;;1.70;0.80;;;;;;;;;;103625;1288;60901;-31
2023/12/12 06:57:46;;;;;;;4.20;0.80;;;;;;;;;;103674;1286;60901;-31
2023/12/12 07:00:12;;;;;;;2.00;1.10;;;;;;;;;;103702;1285;60891;-30
2023/12/12 07:02:37;;;;;;;;;;;;;;;;;;103723;1285;60798;-32
2023/12/12 07:05:04;;;;;;;1.10;0.70;;;;;;;;;;103702;1284;60904;-31
2023/12/12 07:07:30;;;;;;;1.60;0.90;;;;;;;;;;103690;1284;60866;-31
2023/12/12 07:09:55;;;;;;;2.30;0.90;;;;;;;;;;103705;1287;60866;-31
2023/12/12 07:12:21;;;;;;;1.80;0.80;;;;;;;;;;103705;1285;60865;-31
2023/12/12 07:14:47;;;;;;;1.30;0.70;;;;;;;;;;103725;1286;60850;-31
2023/12/12 07:17:13;;;;;;;;;;;;;;;;;;103774;1285;60789;-33
2023/12/12 07:19:38;;;;;;;1.00;0.40;;;;;;;;;;103833;1286;60850;-31
2023/12/12 07:22:04;;;;;;;0.40;0.30;;;;;;;;;;103655;1286;60908;-32
2023/12/12 07:24:30;;;;;;;1.30;0.50;;;;;;;;;;103651;1286;60853;-31
2023/12/12 07:26:55;;;;;;;2.30;1.20;;;;;;;;;;103725;1285;60677;-32
2023/12/12 07:29:22;;;;;;;1.90;0.60;;;;;;;;;;103647;1285;60820;-31
2023/12/12 07:31:48;;;;;;;1.00;0.40;;;;;;;;;;103702;1288;60853;-31
2023/12/12 07:34:14;;;;;;;2.10;0.70;;;;;;;;;;103737;1286;60914;-32
2023/12/12 07:36:41;;;;;;;1.10;0.40;;;;;;;;;;103593;1284;60774;-33
2023/12/12 07:39:07;;;;;;;0.50;0.20;;;;;;;;;;103748;1285;60814;-32
2023/12/12 07:41:32;;;;;;;0.80;0.40;;;;;;;;;;103745;1286;60824;-32
2023/12/12 07:43:58;;;;;;;1.10;0.50;;;;;;;;;;103839;1288;60890;-32
2023/12/12 07:46:23;;;;;;;2.70;0.70;;;;;;;;;;103772;1287;60875;-34
2023/12/12 07:48:49;;;;;;;1.70;0.50;;;;;;;;;;103803;1288;60873;-32
2023/12/12 07:51:15;;;;;;;2.80;0.80;;;;;;;;;;103685;1285;60899;-31
2023/12/12 07:53:41;;;;;;;1.50;0.70;;;;;;;;;;103702;1285;60761;-33
2023/12/12 07:56:06;;;;;;;1.50;0.60;;;;;;;;;;103746;1285;60760;-30
2023/12/12 07:58:32;;;;;;;1.80;0.70;;;;;;;;;;103689;1284;60883;-35
2023/12/12 08:00:59;;;;;;;2.00;0.70;;;;;;;;;;103694;1286;60770;-31
2023/12/12 08:03:25;;;;;;;1.60;0.80;;;;;;;;;;103770;1288;60828;-31
2023/12/12 08:05:51;;;;;;;1.80;0.70;;;;;;;;;;103656;1288;60893;-31
2023/12/12 08:08:18;;;;;;;3.40;1.40;;;;;;;;;;103639;1284;60917;-30
2023/12/12 08:10:43;;;;;;;2.30;1.10;;;;;;;;;;103780;1285;60850;-31
2023/12/12 08:13:10;;;;;;;3.00;0.70;;;;;;;;;;103724;1285;61397;-32
2023/12/12 08:15:36;;;;;;;1.90;0.70;;;;;;;;;;103659;1285;60831;-30
2023/12/12 08:18:02;;;;;;;1.40;0.70;;;;;;;;;;103731;1288;60895;-30
2023/12/12 08:20:28;;;;;;;3.40;0.40;;;;;;;;;;103815;1285;60869;-31
2023/12/12 08:22:56;;;;;;;1.00;0.50;;;;;;;;;;103849;1286;60897;-32
2023/12/12 08:25:22;;;;;;;0.70;0.40;;;;;;;;;;103729;1284;61251;-30
2023/12/12 08:27:48;;;;;;;4.10;0.90;;;;;;;;;;103805;1284;60895;-30
2023/12/12 08:30:13;;;;;;;2.60;1.30;;;;;;;;;;103763;1285;60872;-32
2023/12/12 08:32:39;;;;;;;;;;;;;;;;;;103748;1285;60898;-30
2023/12/12 08:35:05;;;;;;;3.60;2.30;;;;;;;;;;103768;1285;60910;-30
2023/12/12 08:37:31;;;;;;;3.50;1.50;;;;;;;;;;103723;1286;60873;-32
2023/12/12 08:39:57;;;;;;;3.70;1.30;;;;;;;;;;103739;1285;60843;-32
2023/12/12 08:42:23;;;;;;;2.30;1.70;;;;;;;;;;103411;1285;60873;-32
2023/12/12 08:44:49;;;;;;;2.00;0.80;;;;;;;;;;103733;1285;60904;-31
2023/12/12 08:47:15;;;;;;;1.50;0.70;;;;;;;;;;103786;1285;60898;-32
2023/12/12 08:49:42;;;;;;;5.30;2.70;;;;;;;;;;103822;1284;60789;-30
2023/12/12 08:52:07;;;;;;;5.00;2.70;;;;;;;;;;103804;1288;60910;-33
2023/12/12 08:54:33;;;;;;;;;;;;;;;;;;103573;1284;60956;-30
2023/12/12 08:56:59;;;;;;;10.10;5.40;;;;;;;;;;103725;1285;61258;-31
2023/12/12 08:59:24;;;;;;;125.10;46.10;;;;;;;;;;103826;1285;60877;-32
2023/12/12 09:01:50;;;;;;;22.90;6.80;;;;;;;;;;103773;1285;60897;-31
2023/12/12 09:04:16;;;;;;;14.40;7.90;;;;;;;;;;103779;1285;60849;-32
2023/12/12 09:06:43;;;;;;;32.30;13.70;;;;;;;;;;103791;1288;60907;-33
2023/12/12 09:09:08;;;;;;;38.00;7.90;;;;;;;;;;103690;1285;60783;-32
2023/12/12 09:11:35;;;;;;;16.20;5.60;;;;;;;;;;103786;1284;60884;-33
2023/12/12 09:14:01;;;;;;;43.50;19.60;;;;;;;;;;103742;1288;60793;-32
2023/12/12 09:16:26;;;;;;;5.60;2.30;;;;;;;;;;103830;1284;60840;-32
2023/12/12 09:18:52;;;;;;;26.10;7.10;;;;;;;;;;103754;1283;60856;-33
2023/12/12 09:21:18;;;;;;;59.70;25.70;;;;;;;;;;103785;1284;60898;-33
2023/12/12 09:23:43;;;;;;;18.50;5.20;;;;;;;;;;103807;1285;60797;-32
2023/12/12 09:26:15;;;;;;;24.90;7.40;;;;;;;;;;103778;1286;60859;-33
2023/12/12 09:28:41;;;;;;;24.30;9.60;;;;;;;;;;103833;1288;60754;-33
2023/12/12 09:31:07;;;;;;;13.30;3.60;;;;;;;;;;103799;1284;60876;-31
2023/12/12 09:33:37;;;;;;;21.10;5.20;;;;;;;;;;103740;1285;60837;-31
2023/12/12 09:36:02;;;;;;;6.70;2.80;;;;;;;;;;103765;1285;60754;-32
2023/12/12 09:38:28;;;;;;;14.50;4.50;;;;;;;;;;103767;1286;60908;-31
2023/12/12 09:40:54;;;;;;;15.40;6.90;;;;;;;;;;103789;1284;60886;-31
2023/12/12 09:43:24;;;;;;;13.30;7.10;;;;;;;;;;103750;1286;60869;-32
2023/12/12 09:45:49;;;;;;;11.00;4.80;;;;;;;;;;103760;1285;60799;-32
2023/12/12 09:48:15;;;;;;;17.90;6.10;;;;;;;;;;103754;1285;61595;-32
2023/12/12 09:50:41;;;;;;;9.10;3.60;;;;;;;;;;103758;1285;61743;-31
2023/12/12 09:53:07;;;;;;;5.40;2.90;;;;;;;;;;103702;1285;61702;-30
2023/12/12 09:55:32;;;;;;;9.50;4.10;;;;;;;;;;103902;1285;61679;-32
2023/12/12 09:57:58;;;;;;;10.80;4.10;;;;;;;;;;103799;1285;61771;-32
2023/12/12 10:00:24;;;;;;;5.20;2.00;;;;;;;;;;103783;1285;62029;-32
2023/12/12 10:02:50;;;;;;;9.60;4.40;;;;;;;;;;103847;1284;61720;-31
2023/12/12 10:05:16;;;;;;;6.10;3.10;;;;;;;;;;103767;1285;61742;-32
2023/12/12 10:07:42;;;;;;;10.10;3.10;;;;;;;;;;103767;1288;61720;-33
2023/12/12 10:10:11;;;;;;;5.70;3.40;;;;;;;;;;103756;1288;61698;-31
2023/12/12 10:12:37;;;;;;;12.20;2.30;;;;;;;;;;103750;1286;61589;-32
2023/12/12 10:15:03;;;;;;;6.40;2.00;;;;;;;;;;103762;1286;62284;-33
2023/12/12 10:17:35;;;;;;;4.30;2.40;;;;;;;;;;103706;1285;61641;-30
2023/12/12 10:20:03;;;;;;;7.00;2.00;;;;;;;;;;103799;1285;61576;-32
2023/12/12 10:22:30;;;;;;;5.10;2.50;;;;;;;;;;103653;1291;61554;-34
2023/12/12 10:25:07;;;;;;;7.80;3.90;;;;;;;;;;103771;1288;61615;-31
2023/12/12 10:27:32;;;;;;;;;;;;;;;;;;103787;1285;61603;-31
2023/12/12 10:29:58;;;;;;;7.70;3.30;;;;;;;;;;103762;1283;62014;-30
2023/12/12 10:32:24;;;;;;;5.70;2.60;;;;;;;;;;103844;1284;61614;-31
2023/12/12 10:34:49;;;;;;;9.10;1.90;;;;;;;;;;103743;1286;61755;-31
2023/12/12 10:37:18;;;;;;;9.00;3.30;;;;;;;;;;103742;1284;61689;-31
2023/12/12 10:39:44;;;;;;;10.50;2.40;;;;;;;;;;103831;1285;61707;-30
2023/12/12 10:42:10;;;;;;;6.80;2.20;;;;;;;;;;103763;1285;61712;-31
2023/12/12 10:44:37;;;;;;;8.60;3.80;;;;;;;;;;103802;1284;61701;-32
2023/12/12 10:47:03;;;;;;;11.40;10.10;;;;;;;;;;103797;1285;61672;-32
2023/12/12 10:49:31;;;;;;;5.50;3.30;;;;;;;;;;103781;1285;61696;-31
2023/12/12 10:51:56;;;;;;;4.00;2.20;;;;;;;;;;103833;1284;61711;-31
2023/12/12 10:54:22;;;;;;;;;;;;;;;;;;103757;1285;62088;-32
2023/12/12 10:56:48;;;;;;;3.50;1.90;;;;;;;;;;103753;1287;61697;-31
2023/12/12 10:59:17;;;;;;;7.20;3.10;;;;;;;;;;103748;1288;61566;-44
2023/12/12 11:01:46;;;;;;;5.50;2.00;;;;;;;;;;103820;1288;61589;-32
2023/12/12 11:04:12;;;;;;;3.20;1.70;;;;;;;;;;103684;1285;61622;-32
2023/12/12 11:06:38;;;;;;;8.60;2.30;;;;;;;;;;103794;1285;61599;-31
2023/12/12 11:09:03;;;;;;;6.20;1.90;;;;;;;;;;103757;1288;61710;-31
2023/12/12 11:11:29;;;;;;;5.70;1.70;;;;;;;;;;103740;1283;61689;-32
2023/12/12 11:13:55;;;;;;;3.10;1.70;;;;;;;;;;103820;1285;61797;-31
2023/12/12 11:16:20;;;;;;;4.00;1.90;;;;;;;;;;103756;1285;61690;-32
2023/12/12 11:18:47;;;;;;;4.80;1.30;;;;;;;;;;103697;1285;61615;-35
2023/12/12 11:21:25;;;;;;;4.60;2.80;;;;;;;;;;103903;1285;61695;-31
2023/12/12 11:23:54;;;;;;;10.30;1.50;;;;;;;;;;103774;1288;61714;-31
2023/12/12 11:26:24;;;;;;;4.90;2.20;;;;;;;;;;103801;1285;61560;-33
2023/12/12 11:28:50;;;;;;;7.00;3.80;;;;;;;;;;103777;1284;62060;-32
2023/12/12 11:31:27;;;;;;;6.90;2.80;;;;;;;;;;103720;1285;61720;-40
2023/12/12 11:34:05;;;;;;;5.40;2.20;;;;;;;;;;103770;1284;61560;-33
2023/12/12 11:36:42;;;;;;;9.40;4.40;;;;;;;;;;103729;1288;61608;-32
2023/12/12 11:39:08;;;;;;;5.70;1.70;;;;;;;;;;103754;1287;61648;-33
2023/12/12 11:41:35;;;;;;;5.00;1.80;;;;;;;;;;103738;1286;61701;-31
2023/12/12 11:44:03;;;;;;;3.20;1.40;;;;;;;;;;103777;1288;61582;-31
2023/12/12 11:46:29;;;;;;;4.90;1.90;;;;;;;;;;103779;1285;62048;-33
2023/12/12 11:48:54;;;;;;;6.80;1.50;;;;;;;;;;103834;1285;61714;-32
2023/12/12 11:51:32;;;;;;;5.40;1.80;;;;;;;;;;103752;1285;61711;-33
2023/12/12 11:53:58;;;;;;;3.90;1.20;;;;;;;;;;103714;1287;61621;-34
2023/12/12 11:56:23;;;;;;;4.60;1.60;;;;;;;;;;103807;1286;61702;-34
2023/12/12 11:58:52;;;;;;;4.40;1.90;;;;;;;;;;103602;1284;62201;-33
2023/12/12 12:01:25;;;;;;;6.10;2.00;;;;;;;;;;103789;1287;61618;-32
2023/12/12 12:03:51;;;;;;;6.30;2.20;;;;;;;;;;103803;1284;61750;-32
2023/12/12 12:06:17;;;;;;;6.10;2.10;;;;;;;;;;103797;1288;61612;-31
2023/12/12 12:08:42;;;;;;;7.90;2.10;;;;;;;;;;103705;1285;61714;-33
2023/12/12 12:11:08;;;;;;;7.00;2.10;;;;;;;;;;103751;1288;62143;-34
2023/12/12 12:13:40;;;;;;;6.10;2.20;;;;;;;;;;103803;1286;61616;-33
2023/12/12 12:16:06;;;;;;;9.10;2.50;;;;;;;;;;103816;1283;61589;-32
2023/12/12 12:18:32;;;;;;;7.80;3.10;;;;;;;;;;103402;1286;61711;-31
2023/12/12 12:20:58;;;;;;;7.30;2.20;;;;;;;;;;103814;1285;61689;-32
2023/12/12 12:23:23;;;;;;;4.00;2.00;;;;;;;;;;103740;1285;61704;-33
2023/12/12 12:25:50;;;;;;;5.70;2.20;;;;;;;;;;103731;1284;62478;-35
2023/12/12 12:28:16;;;;;;;6.00;2.50;;;;;;;;;;103752;1285;62418;-33
2023/12/12 12:30:46;;;;;;;4.40;2.30;;;;;;;;;;103762;1285;62402;-31
2023/12/12 12:33:11;;;;;;;6.40;2.20;;;;;;;;;;103696;1284;62384;-33
2023/12/12 12:35:37;;;;;;;5.30;1.90;;;;;;;;;;103696;1285;62531;-32
2023/12/12 12:38:02;;;;;;;;;;;;;;;;;;103800;1283;62593;-33
2023/12/12 12:40:33;;;;;;;6.00;2.30;;;;;;;;;;103731;1284;62661;-30
2023/12/12 12:42:58;;;;;;;9.50;4.00;;;;;;;;;;103797;1286;62588;-31
2023/12/12 12:45:24;;;;;;;7.50;3.10;;;;;;;;;;103762;1288;62715;-32
2023/12/12 12:47:50;;;;;;;9.80;2.70;;;;;;;;;;103688;1288;62727;-33
2023/12/12 12:50:16;;;;;;;8.30;2.40;;;;;;;;;;103758;1286;62699;-31
2023/12/12 12:52:42;;;;;;;5.50;2.80;;;;;;;;;;103694;1288;62767;-33
2023/12/12 12:55:07;;;;;;;8.70;2.60;;;;;;;;;;103732;1285;62706;-32
2023/12/12 12:57:33;;;;;;;8.80;2.80;;;;;;;;;;103680;1284;62753;-32
2023/12/12 12:59:59;;;;;;;7.80;3.10;;;;;;;;;;103810;1285;62864;-33
2023/12/12 13:02:24;;;;;;;5.70;2.80;;;;;;;;;;103751;1285;62744;-34
2023/12/12 13:04:50;;;;;;;10.10;2.70;;;;;;;;;;103795;1286;62888;-33
2023/12/12 13:07:16;;;;;;;3.40;2.30;;;;;;;;;;103844;1283;62787;-30
2023/12/12 13:09:43;;;;;;;5.80;2.10;;;;;;;;;;103822;1284;62732;-31
2023/12/12 13:12:08;;;;;;;6.40;2.30;;;;;;;;;;103789;1286;63056;-30
2023/12/12 13:14:34;;;;;;;5.60;2.10;;;;;;;;;;103718;1288;62683;-33
2023/12/12 13:17:00;;;;;;;5.60;1.80;;;;;;;;;;103699;1286;62841;-30
2023/12/12 13:19:28;;;;;;;5.60;2.30;;;;;;;;;;103725;1284;62846;-31
2023/12/12 13:21:54;;;;;;;5.70;2.10;;;;;;;;;;103775;1288;62688;-33
2023/12/12 13:24:22;;;;;;;;;;;;;;;;;;103838;1285;62416;-31
2023/12/12 13:26:51;;;;;;;7.50;2.90;;;;;;;;;;103421;1285;62742;-32
2023/12/12 13:29:17;;;;;;;10.00;4.70;;;;;;;;;;103728;1285;62624;-32
2023/12/12 13:31:42;;;;;;;15.50;7.10;;;;;;;;;;103702;1285;62784;-31
2023/12/12 13:34:08;;;;;;;14.50;6.00;;;;;;;;;;103786;1286;62738;-32
2023/12/12 13:36:34;;;;;;;15.90;7.40;;;;;;;;;;103558;1284;62934;-31
2023/12/12 13:39:00;;;;;;;;;;;;;;;;;;103769;1286;62834;-32
2023/12/12 13:41:25;;;;;;;25.30;9.80;;;;;;;;;;103817;1285;62908;-31
2023/12/12 13:43:51;;;;;;;17.10;9.90;;;;;;;;;;103770;1285;62740;-33
2023/12/12 13:46:17;;;;;;;34.20;16.50;;;;;;;;;;103797;1288;62786;-34
2023/12/12 13:48:42;;;;;;;17.60;7.80;;;;;;;;;;103840;1283;62751;-32
2023/12/12 14:31:01;;;;;;;6.50;2.90;;;;;;;-101.50;0.73;19718.86;99863;1285;2004087;-31
2023/12/12 14:33:27;;;;;;;4.00;2.00;;;;;;;-128.00;-1.00;-1.00;100230;1286;1003243;-31
2023/12/12 14:35:53;;;;;;;7.50;3.40;;;;;;;-128.00;-1.00;-1.00;100432;1282;1003245;-31
2023/12/12 14:38:19;;;;;;;8.50;3.50;;;;;;;-128.00;-1.00;-1.00;100300;1281;1003551;-31
2023/12/12 14:40:47;;;;;;;4.60;2.30;;;;;;;-128.00;-1.00;-1.00;100317;1282;1055656;-33
2023/12/12 14:43:14;;;;;;;6.80;2.20;;;;;;;-128.00;-1.00;-1.00;100280;1283;1058462;-35
2023/12/12 14:45:40;;;;;;;5.40;2.20;;;;;;;-128.00;-1.00;-1.00;100350;1283;1003223;-33
2023/12/12 14:48:06;;;;;;;4.30;2.00;;;;;;;-128.00;-1.00;-1.00;100352;1285;1003110;-31
2023/12/12 14:50:34;;;;;;;7.20;2.60;;;;;;;-128.00;-1.00;-1.00;100353;1282;1003290;-31
2023/12/12 14:53:00;;;;;;;5.20;2.70;;;;;;;-128.00;-1.00;-1.00;100356;1282;1003549;-31